EDDT Airport Information

Runway Information
Runway 08L Length 9918 ft width 151 ft
Elevation 110 ft Threshold 0 ft Heading 81
Runway 26R Length 9918 ft Width 151 ft
Elevation 117 ft Threshold 0 ft Heading 261
Runway 08R Length 7966 ft width 151 ft
Elevation 109 ft Threshold 341 ft Heading 81
Runway 26L Length 7966 ft Width 151 ft
Elevation 122 ft Threshold 722 ft Heading 261
Airport Frequencies
Type AFIS Name BERLIN INF Frequency 132.65 MHZ
Type APP Name BERLIN ARR Frequency 119.625 MHZ
Type ATIS Name ATIS Frequency 125.9 MHZ
Type DEP Name BERLIN DEP Frequency 120.625 MHZ
Type DIR Name BERLIN DIR Frequency 136.1 MHZ
Type GND Name GND Frequency 121.925 MHZ
Type RMP Name BERLIN MIL Frequency 136 MHZ
Type TWR Name TWR Frequency 124.525 MHZ
Airport Navaids
Type NDB Name Tegel East Frequency 321 KHZ
Type NDB Name Tegel West Frequency 392 KHZ
Type VOR-DME Name Tegel Frequency 112300 KHZ
Airport Weather Information & NOTAM
ADDS - METARS form results

(1904 UTC 25 June 2018)
 
METAR text: EDDT 251850Z 30007KT 270V360 9999 FEW037 18/12 Q1020 NOSIG
Conditions at: EDDT (BERLIN/TEGEL (FA, DE) observed 1850 UTC 25 June 2018
Temperature: 18.0°C (64°F)
Dewpoint: 12.0°C (54°F) [RH = 68%]
Pressure (altimeter): 30.12 inches Hg (1020.0 mb)
Winds: from the WNW (300 degrees) at 8 MPH (7 knots; 3.6 m/s)
Visibility: 6 or more miles (10+ km)
Ceiling: at least 12,000 feet AGL
Clouds: few clouds at 3700 feet AGL
Weather: no significant weather observed at this time

METAR text: EDDT 251820Z 30008KT 260V330 9999 FEW037 SCT130 19/12 Q1020 NOSIG
Conditions at: EDDT (BERLIN/TEGEL (FA, DE) observed 1820 UTC 25 June 2018
Temperature: 19.0°C (66°F)
Dewpoint: 12.0°C (54°F) [RH = 64%]
Pressure (altimeter): 30.12 inches Hg (1020.0 mb)
Winds: from the WNW (300 degrees) at 9 MPH (8 knots; 4.2 m/s)
Visibility: 6 or more miles (10+ km)
Ceiling: at least 12,000 feet AGL
Clouds: few clouds at 3700 feet AGL
scattered clouds at 13000 feet AGL
Weather: no significant weather observed at this time